sensor_id;sensor_type;location;lat;lon;timestamp;temperature;humidity
37158;DHT22;23050;51.776;22.638;2023-04-30T00:01:18;6.80;99.90
37158;DHT22;23050;51.776;22.638;2023-04-30T00:03:44;6.80;99.90
37158;DHT22;23050;51.776;22.638;2023-04-30T00:06:09;6.90;99.90
37158;DHT22;23050;51.776;22.638;2023-04-30T00:08:35;6.80;99.90
37158;DHT22;23050;51.776;22.638;2023-04-30T00:11:00;6.80;99.90
37158;DHT22;23050;51.776;22.638;2023-04-30T00:13:26;6.70;99.90
37158;DHT22;23050;51.776;22.638;2023-04-30T00:15:51;6.70;99.90
37158;DHT22;23050;51.776;22.638;2023-04-30T00:18:17;6.60;99.90
37158;DHT22;23050;51.776;22.638;2023-04-30T00:20:42;6.50;99.90
37158;DHT22;23050;51.776;22.638;2023-04-30T00:23:08;6.60;99.90
37158;DHT22;23050;51.776;22.638;2023-04-30T00:25:33;6.50;99.90
37158;DHT22;23050;51.776;22.638;2023-04-30T00:27:59;6.50;99.90
37158;DHT22;23050;51.776;22.638;2023-04-30T00:30:25;6.50;99.90
37158;DHT22;23050;51.776;22.638;2023-04-30T00:32:50;6.60;99.90
37158;DHT22;23050;51.776;22.638;2023-04-30T00:35:16;6.50;99.90
37158;DHT22;23050;51.776;22.638;2023-04-30T00:37:41;6.50;99.90
37158;DHT22;23050;51.776;22.638;2023-04-30T00:40:07;6.50;99.90
37158;DHT22;23050;51.776;22.638;2023-04-30T00:42:32;6.40;99.90
37158;DHT22;23050;51.776;22.638;2023-04-30T00:44:58;6.50;99.90
37158;DHT22;23050;51.776;22.638;2023-04-30T00:47:23;6.40;99.90
37158;DHT22;23050;51.776;22.638;2023-04-30T00:49:49;6.30;99.90
37158;DHT22;23050;51.776;22.638;2023-04-30T00:52:14;6.30;99.90
37158;DHT22;23050;51.776;22.638;2023-04-30T00:54:40;6.30;99.90
37158;DHT22;23050;51.776;22.638;2023-04-30T00:57:06;6.20;99.90
37158;DHT22;23050;51.776;22.638;2023-04-30T00:59:32;6.20;99.90
37158;DHT22;23050;51.776;22.638;2023-04-30T01:01:57;6.10;99.90
37158;DHT22;23050;51.776;22.638;2023-04-30T01:04:23;6.00;99.90
37158;DHT22;23050;51.776;22.638;2023-04-30T01:06:48;6.00;99.90
37158;DHT22;23050;51.776;22.638;2023-04-30T01:09:14;6.00;99.90
37158;DHT22;23050;51.776;22.638;2023-04-30T01:11:44;6.00;99.90
37158;DHT22;23050;51.776;22.638;2023-04-30T01:14:13;6.00;99.90
37158;DHT22;23050;51.776;22.638;2023-04-30T01:16:48;5.90;99.90
37158;DHT22;23050;51.776;22.638;2023-04-30T01:21:59;5.70;99.90
37158;DHT22;23050;51.776;22.638;2023-04-30T01:27:31;5.60;99.90
37158;DHT22;23050;51.776;22.638;2023-04-30T01:30:03;5.50;99.90
37158;DHT22;23050;51.776;22.638;2023-04-30T01:32:29;5.50;99.90
37158;DHT22;23050;51.776;22.638;2023-04-30T01:34:54;5.40;99.90
37158;DHT22;23050;51.776;22.638;2023-04-30T01:42:20;5.40;99.90
37158;DHT22;23050;51.776;22.638;2023-04-30T01:44:57;5.40;99.90
37158;DHT22;23050;51.776;22.638;2023-04-30T01:55:04;5.20;99.90
37158;DHT22;23050;51.776;22.638;2023-04-30T01:57:32;5.20;99.90
37158;DHT22;23050;51.776;22.638;2023-04-30T01:59:58;5.10;99.90
37158;DHT22;23050;51.776;22.638;2023-04-30T02:02:23;5.10;99.90
37158;DHT22;23050;51.776;22.638;2023-04-30T02:04:49;5.00;99.90
37158;DHT22;23050;51.776;22.638;2023-04-30T02:07:16;5.00;99.90
37158;DHT22;23050;51.776;22.638;2023-04-30T02:09:44;5.00;99.90
37158;DHT22;23050;51.776;22.638;2023-04-30T02:12:10;4.90;99.90
37158;DHT22;23050;51.776;22.638;2023-04-30T02:14:35;4.80;99.90
37158;DHT22;23050;51.776;22.638;2023-04-30T02:17:01;5.00;99.90
37158;DHT22;23050;51.776;22.638;2023-04-30T02:19:26;4.80;99.90
37158;DHT22;23050;51.776;22.638;2023-04-30T02:21:52;4.90;99.90
37158;DHT22;23050;51.776;22.638;2023-04-30T02:24:17;4.90;99.90
37158;DHT22;23050;51.776;22.638;2023-04-30T02:26:43;4.90;99.90
37158;DHT22;23050;51.776;22.638;2023-04-30T02:29:08;4.90;99.90
37158;DHT22;23050;51.776;22.638;2023-04-30T02:31:33;4.80;99.90
37158;DHT22;23050;51.776;22.638;2023-04-30T02:33:59;4.70;99.90
37158;DHT22;23050;51.776;22.638;2023-04-30T02:36:24;4.80;99.90
37158;DHT22;23050;51.776;22.638;2023-04-30T02:38:50;4.80;99.90
37158;DHT22;23050;51.776;22.638;2023-04-30T02:41:15;4.90;99.90
37158;DHT22;23050;51.776;22.638;2023-04-30T02:43:41;4.90;99.90
37158;DHT22;23050;51.776;22.638;2023-04-30T02:46:06;5.00;99.90
37158;DHT22;23050;51.776;22.638;2023-04-30T02:48:32;4.90;99.90
37158;DHT22;23050;51.776;22.638;2023-04-30T02:50:57;4.90;99.90
37158;DHT22;23050;51.776;22.638;2023-04-30T02:53:23;4.90;99.90
37158;DHT22;23050;51.776;22.638;2023-04-30T02:55:48;4.90;99.90
37158;DHT22;23050;51.776;22.638;2023-04-30T02:58:14;4.80;99.90
37158;DHT22;23050;51.776;22.638;2023-04-30T03:00:39;4.80;99.90
37158;DHT22;23050;51.776;22.638;2023-04-30T03:03:04;4.70;99.90
37158;DHT22;23050;51.776;22.638;2023-04-30T03:05:30;4.70;99.90
37158;DHT22;23050;51.776;22.638;2023-04-30T03:07:55;4.60;99.90
37158;DHT22;23050;51.776;22.638;2023-04-30T03:10:21;4.60;99.90
37158;DHT22;23050;51.776;22.638;2023-04-30T03:12:46;4.70;99.90
37158;DHT22;23050;51.776;22.638;2023-04-30T03:15:12;4.80;99.90
37158;DHT22;23050;51.776;22.638;2023-04-30T03:17:37;4.90;99.90
37158;DHT22;23050;51.776;22.638;2023-04-30T03:20:03;4.90;99.90
37158;DHT22;23050;51.776;22.638;2023-04-30T03:22:29;5.00;99.90
37158;DHT22;23050;51.776;22.638;2023-04-30T03:24:54;5.00;99.90
37158;DHT22;23050;51.776;22.638;2023-04-30T03:27:20;5.00;99.90
37158;DHT22;23050;51.776;22.638;2023-04-30T03:29:45;5.00;99.90
37158;DHT22;23050;51.776;22.638;2023-04-30T03:32:11;5.10;99.90
37158;DHT22;23050;51.776;22.638;2023-04-30T03:34:37;5.10;99.90
37158;DHT22;23050;51.776;22.638;2023-04-30T03:37:02;5.10;99.90
37158;DHT22;23050;51.776;22.638;2023-04-30T03:39:28;5.10;99.90
37158;DHT22;23050;51.776;22.638;2023-04-30T03:41:53;5.10;99.90
37158;DHT22;23050;51.776;22.638;2023-04-30T03:44:18;5.20;99.90
37158;DHT22;23050;51.776;22.638;2023-04-30T03:46:44;5.30;99.90
37158;DHT22;23050;51.776;22.638;2023-04-30T03:49:10;5.30;99.90
37158;DHT22;23050;51.776;22.638;2023-04-30T03:51:36;5.50;99.90
37158;DHT22;23050;51.776;22.638;2023-04-30T03:54:04;5.60;99.90
37158;DHT22;23050;51.776;22.638;2023-04-30T03:56:31;5.60;99.90
37158;DHT22;23050;51.776;22.638;2023-04-30T03:58:56;5.80;99.90
37158;DHT22;23050;51.776;22.638;2023-04-30T04:01:22;5.90;99.90
37158;DHT22;23050;51.776;22.638;2023-04-30T04:03:47;5.90;99.90
37158;DHT22;23050;51.776;22.638;2023-04-30T04:06:12;6.20;99.90
37158;DHT22;23050;51.776;22.638;2023-04-30T04:08:38;6.30;99.90
37158;DHT22;23050;51.776;22.638;2023-04-30T04:11:07;6.50;99.90
37158;DHT22;23050;51.776;22.638;2023-04-30T04:13:33;6.60;99.90
37158;DHT22;23050;51.776;22.638;2023-04-30T04:15:59;6.80;99.90
37158;DHT22;23050;51.776;22.638;2023-04-30T04:18:25;6.90;99.90
37158;DHT22;23050;51.776;22.638;2023-04-30T04:20:50;7.10;99.90
37158;DHT22;23050;51.776;22.638;2023-04-30T04:23:16;7.20;99.90
37158;DHT22;23050;51.776;22.638;2023-04-30T04:25:41;7.40;99.90
37158;DHT22;23050;51.776;22.638;2023-04-30T04:28:08;7.60;99.90
37158;DHT22;23050;51.776;22.638;2023-04-30T04:30:34;7.70;99.90
37158;DHT22;23050;51.776;22.638;2023-04-30T04:33:00;7.70;99.90
37158;DHT22;23050;51.776;22.638;2023-04-30T04:35:26;7.80;99.90
37158;DHT22;23050;51.776;22.638;2023-04-30T04:37:52;7.80;99.90
37158;DHT22;23050;51.776;22.638;2023-04-30T04:40:17;7.80;99.90
37158;DHT22;23050;51.776;22.638;2023-04-30T04:42:43;7.80;99.90
37158;DHT22;23050;51.776;22.638;2023-04-30T04:45:08;7.90;99.90
37158;DHT22;23050;51.776;22.638;2023-04-30T04:47:34;7.90;99.90
37158;DHT22;23050;51.776;22.638;2023-04-30T04:50:00;7.90;99.90
37158;DHT22;23050;51.776;22.638;2023-04-30T04:52:26;7.90;99.90
37158;DHT22;23050;51.776;22.638;2023-04-30T04:54:51;7.80;99.90
37158;DHT22;23050;51.776;22.638;2023-04-30T04:57:17;7.80;99.90
37158;DHT22;23050;51.776;22.638;2023-04-30T04:59:42;7.80;99.90
37158;DHT22;23050;51.776;22.638;2023-04-30T05:02:08;7.80;99.90
37158;DHT22;23050;51.776;22.638;2023-04-30T05:04:33;7.90;99.90
37158;DHT22;23050;51.776;22.638;2023-04-30T05:06:59;7.90;99.90
37158;DHT22;23050;51.776;22.638;2023-04-30T05:09:24;7.90;99.90
37158;DHT22;23050;51.776;22.638;2023-04-30T05:11:50;7.90;99.90
37158;DHT22;23050;51.776;22.638;2023-04-30T05:14:15;7.90;99.90
37158;DHT22;23050;51.776;22.638;2023-04-30T05:16:41;8.00;99.90
37158;DHT22;23050;51.776;22.638;2023-04-30T05:19:06;8.10;99.90
37158;DHT22;23050;51.776;22.638;2023-04-30T05:21:34;8.20;99.90
37158;DHT22;23050;51.776;22.638;2023-04-30T05:23:59;8.10;99.90
37158;DHT22;23050;51.776;22.638;2023-04-30T05:26:25;8.30;99.90
37158;DHT22;23050;51.776;22.638;2023-04-30T05:28:50;8.50;99.90
37158;DHT22;23050;51.776;22.638;2023-04-30T05:31:16;8.70;99.90
37158;DHT22;23050;51.776;22.638;2023-04-30T05:33:42;9.00;97.60
37158;DHT22;23050;51.776;22.638;2023-04-30T05:36:08;9.30;95.50
37158;DHT22;23050;51.776;22.638;2023-04-30T05:38:34;9.40;94.50
37158;DHT22;23050;51.776;22.638;2023-04-30T05:40:59;9.60;93.40
37158;DHT22;23050;51.776;22.638;2023-04-30T05:43:25;9.80;93.70
37158;DHT22;23050;51.776;22.638;2023-04-30T05:45:50;10.20;94.30
37158;DHT22;23050;51.776;22.638;2023-04-30T05:48:15;10.70;91.30
37158;DHT22;23050;51.776;22.638;2023-04-30T05:50:41;11.20;81.50
37158;DHT22;23050;51.776;22.638;2023-04-30T05:53:07;11.80;68.60
37158;DHT22;23050;51.776;22.638;2023-04-30T05:55:32;12.10;60.30
37158;DHT22;23050;51.776;22.638;2023-04-30T05:57:58;12.40;49.30
37158;DHT22;23050;51.776;22.638;2023-04-30T06:00:24;12.60;49.00
37158;DHT22;23050;51.776;22.638;2023-04-30T06:02:49;12.70;52.00
37158;DHT22;23050;51.776;22.638;2023-04-30T06:05:15;12.50;60.70
37158;DHT22;23050;51.776;22.638;2023-04-30T06:07:40;12.20;82.60
37158;DHT22;23050;51.776;22.638;2023-04-30T06:10:06;11.90;93.70
37158;DHT22;23050;51.776;22.638;2023-04-30T06:12:32;11.60;98.40
37158;DHT22;23050;51.776;22.638;2023-04-30T06:14:57;11.60;99.90
37158;DHT22;23050;51.776;22.638;2023-04-30T06:17:23;11.60;99.90
37158;DHT22;23050;51.776;22.638;2023-04-30T06:19:48;11.60;99.90
37158;DHT22;23050;51.776;22.638;2023-04-30T06:22:14;11.60;99.90
37158;DHT22;23050;51.776;22.638;2023-04-30T06:24:39;11.50;99.90
37158;DHT22;23050;51.776;22.638;2023-04-30T06:27:05;11.40;99.90
37158;DHT22;23050;51.776;22.638;2023-04-30T06:29:30;11.30;99.90
37158;DHT22;23050;51.776;22.638;2023-04-30T06:31:56;11.40;99.90
37158;DHT22;23050;51.776;22.638;2023-04-30T06:34:21;11.30;99.90
37158;DHT22;23050;51.776;22.638;2023-04-30T06:36:47;11.30;99.90
37158;DHT22;23050;51.776;22.638;2023-04-30T06:39:15;11.40;99.90
37158;DHT22;23050;51.776;22.638;2023-04-30T06:41:41;11.50;99.90
37158;DHT22;23050;51.776;22.638;2023-04-30T06:44:07;11.60;99.90
37158;DHT22;23050;51.776;22.638;2023-04-30T06:46:33;11.60;99.90
37158;DHT22;23050;51.776;22.638;2023-04-30T06:48:59;11.50;99.90
37158;DHT22;23050;51.776;22.638;2023-04-30T06:51:24;11.50;99.90
37158;DHT22;23050;51.776;22.638;2023-04-30T06:53:50;11.50;99.90
37158;DHT22;23050;51.776;22.638;2023-04-30T06:56:16;11.50;99.90
37158;DHT22;23050;51.776;22.638;2023-04-30T06:58:41;11.40;99.90
37158;DHT22;23050;51.776;22.638;2023-04-30T07:01:07;11.50;99.90
37158;DHT22;23050;51.776;22.638;2023-04-30T07:03:33;11.40;99.90
37158;DHT22;23050;51.776;22.638;2023-04-30T07:05:59;11.50;99.90
37158;DHT22;23050;51.776;22.638;2023-04-30T07:08:24;11.60;99.90
37158;DHT22;23050;51.776;22.638;2023-04-30T07:10:50;11.80;99.90
37158;DHT22;23050;51.776;22.638;2023-04-30T07:13:15;12.00;99.90
37158;DHT22;23050;51.776;22.638;2023-04-30T07:15:41;12.10;99.90
37158;DHT22;23050;51.776;22.638;2023-04-30T07:18:06;12.00;99.90
37158;DHT22;23050;51.776;22.638;2023-04-30T07:20:33;12.10;99.90
37158;DHT22;23050;51.776;22.638;2023-04-30T07:23:00;12.20;99.90
37158;DHT22;23050;51.776;22.638;2023-04-30T07:25:25;12.10;99.90
37158;DHT22;23050;51.776;22.638;2023-04-30T07:27:51;11.90;99.90
37158;DHT22;23050;51.776;22.638;2023-04-30T07:30:19;11.70;99.90
37158;DHT22;23050;51.776;22.638;2023-04-30T07:32:46;11.60;99.90
37158;DHT22;23050;51.776;22.638;2023-04-30T07:35:11;11.50;99.90
37158;DHT22;23050;51.776;22.638;2023-04-30T07:37:38;11.50;99.90
37158;DHT22;23050;51.776;22.638;2023-04-30T07:40:03;11.50;99.90
37158;DHT22;23050;51.776;22.638;2023-04-30T07:42:29;11.40;99.90
37158;DHT22;23050;51.776;22.638;2023-04-30T07:44:54;11.50;99.90
37158;DHT22;23050;51.776;22.638;2023-04-30T07:47:20;11.40;99.90
37158;DHT22;23050;51.776;22.638;2023-04-30T07:49:46;11.60;99.90
37158;DHT22;23050;51.776;22.638;2023-04-30T07:52:12;11.70;99.90
37158;DHT22;23050;51.776;22.638;2023-04-30T07:54:37;12.00;99.90
37158;DHT22;23050;51.776;22.638;2023-04-30T07:57:04;12.10;99.90
37158;DHT22;23050;51.776;22.638;2023-04-30T07:59:30;12.30;99.90
37158;DHT22;23050;51.776;22.638;2023-04-30T08:01:55;12.40;99.90
37158;DHT22;23050;51.776;22.638;2023-04-30T08:04:21;12.40;99.90
37158;DHT22;23050;51.776;22.638;2023-04-30T08:06:46;12.40;99.90
37158;DHT22;23050;51.776;22.638;2023-04-30T08:09:12;12.40;99.90
37158;DHT22;23050;51.776;22.638;2023-04-30T08:11:37;12.60;99.90
37158;DHT22;23050;51.776;22.638;2023-04-30T08:14:03;12.70;99.90
37158;DHT22;23050;51.776;22.638;2023-04-30T08:16:29;12.70;99.90
37158;DHT22;23050;51.776;22.638;2023-04-30T08:18:55;12.70;99.90
37158;DHT22;23050;51.776;22.638;2023-04-30T08:21:21;12.70;99.90
37158;DHT22;23050;51.776;22.638;2023-04-30T08:23:46;12.60;99.90
37158;DHT22;23050;51.776;22.638;2023-04-30T08:26:12;12.40;99.90
37158;DHT22;23050;51.776;22.638;2023-04-30T08:28:37;12.30;99.90
37158;DHT22;23050;51.776;22.638;2023-04-30T08:31:03;12.10;99.90
37158;DHT22;23050;51.776;22.638;2023-04-30T08:33:28;12.10;99.90
37158;DHT22;23050;51.776;22.638;2023-04-30T08:35:54;11.90;99.90
37158;DHT22;23050;51.776;22.638;2023-04-30T08:38:19;11.80;99.90
37158;DHT22;23050;51.776;22.638;2023-04-30T08:40:48;11.90;99.90
37158;DHT22;23050;51.776;22.638;2023-04-30T08:43:16;11.90;99.90
37158;DHT22;23050;51.776;22.638;2023-04-30T08:45:42;12.00;99.90
37158;DHT22;23050;51.776;22.638;2023-04-30T08:48:09;11.90;99.90
37158;DHT22;23050;51.776;22.638;2023-04-30T08:50:35;11.90;99.90
37158;DHT22;23050;51.776;22.638;2023-04-30T08:53:01;11.90;99.90
37158;DHT22;23050;51.776;22.638;2023-04-30T08:55:27;11.90;99.90
37158;DHT22;23050;51.776;22.638;2023-04-30T08:57:52;11.80;99.90
37158;DHT22;23050;51.776;22.638;2023-04-30T09:00:18;11.80;99.90
37158;DHT22;23050;51.776;22.638;2023-04-30T09:02:43;11.90;99.90
37158;DHT22;23050;51.776;22.638;2023-04-30T09:05:13;11.90;99.90
37158;DHT22;23050;51.776;22.638;2023-04-30T09:07:39;12.00;99.90
37158;DHT22;23050;51.776;22.638;2023-04-30T09:10:13;12.10;99.90
37158;DHT22;23050;51.776;22.638;2023-04-30T09:12:39;12.30;99.90
37158;DHT22;23050;51.776;22.638;2023-04-30T09:15:07;12.30;99.90
37158;DHT22;23050;51.776;22.638;2023-04-30T09:17:33;12.30;99.90
37158;DHT22;23050;51.776;22.638;2023-04-30T09:20:11;12.40;99.90
37158;DHT22;23050;51.776;22.638;2023-04-30T09:22:38;12.50;99.90
37158;DHT22;23050;51.776;22.638;2023-04-30T09:25:04;12.70;99.90
37158;DHT22;23050;51.776;22.638;2023-04-30T09:27:30;12.90;99.90
37158;DHT22;23050;51.776;22.638;2023-04-30T09:29:55;13.00;99.90
37158;DHT22;23050;51.776;22.638;2023-04-30T09:32:21;13.20;99.90
37158;DHT22;23050;51.776;22.638;2023-04-30T09:34:46;13.30;99.90
37158;DHT22;23050;51.776;22.638;2023-04-30T09:37:12;13.70;99.90
37158;DHT22;23050;51.776;22.638;2023-04-30T09:39:50;14.00;99.90
37158;DHT22;23050;51.776;22.638;2023-04-30T09:42:16;14.40;99.40
37158;DHT22;23050;51.776;22.638;2023-04-30T09:44:43;15.00;95.40
37158;DHT22;23050;51.776;22.638;2023-04-30T09:47:12;15.70;81.10
37158;DHT22;23050;51.776;22.638;2023-04-30T09:49:39;16.70;52.10
37158;DHT22;23050;51.776;22.638;2023-04-30T09:52:05;17.70;1.00
37158;DHT22;23050;51.776;22.638;2023-04-30T09:54:31;18.70;1.00
37158;DHT22;23050;51.776;22.638;2023-04-30T09:56:58;19.30;1.00
37158;DHT22;23050;51.776;22.638;2023-04-30T09:59:27;19.50;1.00
37158;DHT22;23050;51.776;22.638;2023-04-30T10:01:52;19.60;1.00
37158;DHT22;23050;51.776;22.638;2023-04-30T10:04:19;19.60;1.00
37158;DHT22;23050;51.776;22.638;2023-04-30T10:06:45;19.70;1.00
37158;DHT22;23050;51.776;22.638;2023-04-30T10:09:10;19.90;1.00
37158;DHT22;23050;51.776;22.638;2023-04-30T10:11:40;20.10;1.00
37158;DHT22;23050;51.776;22.638;2023-04-30T10:14:10;20.00;1.00
37158;DHT22;23050;51.776;22.638;2023-04-30T10:16:39;20.40;1.00
37158;DHT22;23050;51.776;22.638;2023-04-30T10:19:15;20.80;1.00
37158;DHT22;23050;51.776;22.638;2023-04-30T10:21:41;21.10;1.00
37158;DHT22;23050;51.776;22.638;2023-04-30T10:24:08;21.70;1.00
37158;DHT22;23050;51.776;22.638;2023-04-30T10:26:33;21.70;1.00
37158;DHT22;23050;51.776;22.638;2023-04-30T10:28:59;22.10;1.00
37158;DHT22;23050;51.776;22.638;2023-04-30T10:31:25;22.60;1.00
37158;DHT22;23050;51.776;22.638;2023-04-30T10:36:32;22.90;1.00
37158;DHT22;23050;51.776;22.638;2023-04-30T10:38:58;23.20;1.00
37158;DHT22;23050;51.776;22.638;2023-04-30T10:41:25;23.10;1.00
37158;DHT22;23050;51.776;22.638;2023-04-30T10:43:50;23.00;1.00
37158;DHT22;23050;51.776;22.638;2023-04-30T10:46:22;23.50;1.00
37158;DHT22;23050;51.776;22.638;2023-04-30T10:48:48;23.30;1.00
37158;DHT22;23050;51.776;22.638;2023-04-30T10:51:13;22.80;1.00
37158;DHT22;23050;51.776;22.638;2023-04-30T10:53:39;22.20;1.00
37158;DHT22;23050;51.776;22.638;2023-04-30T10:56:06;21.60;1.00
37158;DHT22;23050;51.776;22.638;2023-04-30T10:58:34;21.20;1.00
37158;DHT22;23050;51.776;22.638;2023-04-30T11:01:03;20.40;1.00
37158;DHT22;23050;51.776;22.638;2023-04-30T11:03:30;20.10;1.00
37158;DHT22;23050;51.776;22.638;2023-04-30T11:05:59;19.80;1.00
37158;DHT22;23050;51.776;22.638;2023-04-30T11:08:37;19.80;1.00
37158;DHT22;23050;51.776;22.638;2023-04-30T11:11:03;20.50;1.00
37158;DHT22;23050;51.776;22.638;2023-04-30T11:16:32;21.20;1.00
37158;DHT22;23050;51.776;22.638;2023-04-30T11:19:04;20.70;1.00
37158;DHT22;23050;51.776;22.638;2023-04-30T11:21:30;20.40;1.00
37158;DHT22;23050;51.776;22.638;2023-04-30T11:24:01;20.30;1.00
37158;DHT22;23050;51.776;22.638;2023-04-30T11:26:26;20.20;1.00
37158;DHT22;23050;51.776;22.638;2023-04-30T11:28:52;19.90;1.00
37158;DHT22;23050;51.776;22.638;2023-04-30T11:31:19;19.90;1.00
37158;DHT22;23050;51.776;22.638;2023-04-30T11:33:45;19.90;1.00
37158;DHT22;23050;51.776;22.638;2023-04-30T11:36:10;19.90;1.00
37158;DHT22;23050;51.776;22.638;2023-04-30T11:38:38;19.70;1.00
37158;DHT22;23050;51.776;22.638;2023-04-30T11:41:05;19.60;1.00
37158;DHT22;23050;51.776;22.638;2023-04-30T11:43:31;19.40;1.00
37158;DHT22;23050;51.776;22.638;2023-04-30T11:46:10;18.90;1.00
37158;DHT22;23050;51.776;22.638;2023-04-30T11:48:36;18.50;1.00
37158;DHT22;23050;51.776;22.638;2023-04-30T11:51:03;18.20;1.00
37158;DHT22;23050;51.776;22.638;2023-04-30T11:53:28;18.20;1.00
37158;DHT22;23050;51.776;22.638;2023-04-30T11:55:55;18.30;1.00
37158;DHT22;23050;51.776;22.638;2023-04-30T11:58:21;18.50;1.00
37158;DHT22;23050;51.776;22.638;2023-04-30T12:00:47;19.30;1.00
37158;DHT22;23050;51.776;22.638;2023-04-30T12:03:13;20.00;1.00
37158;DHT22;23050;51.776;22.638;2023-04-30T12:05:39;20.20;1.00
37158;DHT22;23050;51.776;22.638;2023-04-30T12:08:05;20.30;1.00
37158;DHT22;23050;51.776;22.638;2023-04-30T12:10:31;19.90;1.00
37158;DHT22;23050;51.776;22.638;2023-04-30T12:12:56;19.60;1.00
37158;DHT22;23050;51.776;22.638;2023-04-30T12:15:22;19.40;1.00
37158;DHT22;23050;51.776;22.638;2023-04-30T12:17:51;19.50;1.00
37158;DHT22;23050;51.776;22.638;2023-04-30T12:20:16;20.20;1.00
37158;DHT22;23050;51.776;22.638;2023-04-30T12:22:43;21.00;1.00
37158;DHT22;23050;51.776;22.638;2023-04-30T12:25:12;21.70;1.00
37158;DHT22;23050;51.776;22.638;2023-04-30T12:27:41;21.40;1.00
37158;DHT22;23050;51.776;22.638;2023-04-30T12:30:09;21.50;1.00
37158;DHT22;23050;51.776;22.638;2023-04-30T12:35:04;21.90;1.00
37158;DHT22;23050;51.776;22.638;2023-04-30T12:37:30;22.00;1.00
37158;DHT22;23050;51.776;22.638;2023-04-30T12:39:55;22.30;1.00
37158;DHT22;23050;51.776;22.638;2023-04-30T12:42:21;22.10;1.00
37158;DHT22;23050;51.776;22.638;2023-04-30T12:44:46;22.20;1.00
37158;DHT22;23050;51.776;22.638;2023-04-30T12:47:12;22.40;1.00
37158;DHT22;23050;51.776;22.638;2023-04-30T12:49:38;22.60;1.00
37158;DHT22;23050;51.776;22.638;2023-04-30T12:52:05;22.10;1.00
37158;DHT22;23050;51.776;22.638;2023-04-30T12:54:34;22.30;1.00
37158;DHT22;23050;51.776;22.638;2023-04-30T12:57:03;22.80;1.00
37158;DHT22;23050;51.776;22.638;2023-04-30T12:59:30;23.20;1.00
37158;DHT22;23050;51.776;22.638;2023-04-30T13:02:04;23.10;1.00
37158;DHT22;23050;51.776;22.638;2023-04-30T13:04:30;23.40;1.00
37158;DHT22;23050;51.776;22.638;2023-04-30T13:06:55;23.60;1.00
37158;DHT22;23050;51.776;22.638;2023-04-30T13:09:21;23.70;1.00
37158;DHT22;23050;51.776;22.638;2023-04-30T13:11:47;23.70;1.00
37158;DHT22;23050;51.776;22.638;2023-04-30T13:14:12;23.00;1.00
37158;DHT22;23050;51.776;22.638;2023-04-30T13:16:38;22.90;1.00
37158;DHT22;23050;51.776;22.638;2023-04-30T13:19:03;22.90;1.00
37158;DHT22;23050;51.776;22.638;2023-04-30T13:21:29;23.10;1.00
37158;DHT22;23050;51.776;22.638;2023-04-30T13:23:55;23.10;1.00
37158;DHT22;23050;51.776;22.638;2023-04-30T13:26:20;23.20;1.00
37158;DHT22;23050;51.776;22.638;2023-04-30T13:28:47;23.30;1.00
37158;DHT22;23050;51.776;22.638;2023-04-30T13:31:12;23.30;1.00
37158;DHT22;23050;51.776;22.638;2023-04-30T13:33:38;23.30;1.00
37158;DHT22;23050;51.776;22.638;2023-04-30T13:36:03;23.40;1.00
37158;DHT22;23050;51.776;22.638;2023-04-30T13:38:29;23.60;1.00
37158;DHT22;23050;51.776;22.638;2023-04-30T13:40:54;23.40;1.00
37158;DHT22;23050;51.776;22.638;2023-04-30T13:43:20;23.30;1.00
37158;DHT22;23050;51.776;22.638;2023-04-30T13:45:45;23.40;1.00
37158;DHT22;23050;51.776;22.638;2023-04-30T13:48:11;23.60;1.00
37158;DHT22;23050;51.776;22.638;2023-04-30T13:50:36;23.40;1.00
37158;DHT22;23050;51.776;22.638;2023-04-30T13:53:01;23.30;1.00
37158;DHT22;23050;51.776;22.638;2023-04-30T13:55:28;23.50;1.00
37158;DHT22;23050;51.776;22.638;2023-04-30T13:57:53;23.70;1.00
37158;DHT22;23050;51.776;22.638;2023-04-30T14:00:19;24.20;1.00
37158;DHT22;23050;51.776;22.638;2023-04-30T14:02:46;23.90;1.00
37158;DHT22;23050;51.776;22.638;2023-04-30T14:05:11;24.00;1.00
37158;DHT22;23050;51.776;22.638;2023-04-30T14:07:37;24.10;1.00
37158;DHT22;23050;51.776;22.638;2023-04-30T14:10:02;24.60;1.00
37158;DHT22;23050;51.776;22.638;2023-04-30T14:12:28;24.10;1.00
37158;DHT22;23050;51.776;22.638;2023-04-30T14:14:54;23.70;1.00
37158;DHT22;23050;51.776;22.638;2023-04-30T14:17:21;23.40;1.00
37158;DHT22;23050;51.776;22.638;2023-04-30T14:19:46;22.90;1.00
37158;DHT22;23050;51.776;22.638;2023-04-30T14:22:12;22.60;1.00
37158;DHT22;23050;51.776;22.638;2023-04-30T14:24:39;22.70;1.00
37158;DHT22;23050;51.776;22.638;2023-04-30T14:27:04;22.80;1.00
37158;DHT22;23050;51.776;22.638;2023-04-30T14:29:30;23.00;1.00
37158;DHT22;23050;51.776;22.638;2023-04-30T14:31:56;23.00;1.00
37158;DHT22;23050;51.776;22.638;2023-04-30T14:34:22;22.90;1.00
37158;DHT22;23050;51.776;22.638;2023-04-30T14:36:48;22.80;1.00
37158;DHT22;23050;51.776;22.638;2023-04-30T14:39:14;22.60;1.00
37158;DHT22;23050;51.776;22.638;2023-04-30T14:41:39;22.50;1.00
37158;DHT22;23050;51.776;22.638;2023-04-30T14:44:06;22.70;1.00
37158;DHT22;23050;51.776;22.638;2023-04-30T14:46:32;23.00;1.00
37158;DHT22;23050;51.776;22.638;2023-04-30T14:48:58;21.30;1.00
37158;DHT22;23050;51.776;22.638;2023-04-30T14:51:24;20.90;1.00
37158;DHT22;23050;51.776;22.638;2023-04-30T14:53:49;20.80;1.00
37158;DHT22;23050;51.776;22.638;2023-04-30T14:56:15;20.10;1.00
37158;DHT22;23050;51.776;22.638;2023-04-30T14:58:40;20.10;1.00
37158;DHT22;23050;51.776;22.638;2023-04-30T15:01:06;20.00;1.00
37158;DHT22;23050;51.776;22.638;2023-04-30T15:03:31;20.30;1.00
37158;DHT22;23050;51.776;22.638;2023-04-30T15:05:57;20.40;1.00
37158;DHT22;23050;51.776;22.638;2023-04-30T15:08:23;20.80;1.00
37158;DHT22;23050;51.776;22.638;2023-04-30T15:10:48;20.90;1.00
37158;DHT22;23050;51.776;22.638;2023-04-30T15:13:14;21.20;1.00
37158;DHT22;23050;51.776;22.638;2023-04-30T15:15:39;21.30;1.00
37158;DHT22;23050;51.776;22.638;2023-04-30T15:18:05;20.80;1.00
37158;DHT22;23050;51.776;22.638;2023-04-30T15:20:31;20.40;1.00
37158;DHT22;23050;51.776;22.638;2023-04-30T15:22:56;19.90;1.00
37158;DHT22;23050;51.776;22.638;2023-04-30T15:25:22;19.90;1.00
37158;DHT22;23050;51.776;22.638;2023-04-30T15:27:48;20.00;1.00
37158;DHT22;23050;51.776;22.638;2023-04-30T15:30:16;20.10;1.00
37158;DHT22;23050;51.776;22.638;2023-04-30T15:32:41;20.30;1.00
37158;DHT22;23050;51.776;22.638;2023-04-30T15:35:07;20.20;1.00
37158;DHT22;23050;51.776;22.638;2023-04-30T15:37:32;20.40;1.00
37158;DHT22;23050;51.776;22.638;2023-04-30T15:39:59;20.00;1.00
37158;DHT22;23050;51.776;22.638;2023-04-30T15:42:24;19.80;1.00
37158;DHT22;23050;51.776;22.638;2023-04-30T15:44:50;19.50;1.00
37158;DHT22;23050;51.776;22.638;2023-04-30T15:47:16;19.30;1.00